createdAt,value
2022-11-27T00:00:56.708Z,102367.25
2022-11-27T00:03:23.308Z,102361.44
2022-11-27T00:05:57.899Z,102364.84
2022-11-27T00:08:24.946Z,102357.03
2022-11-27T00:10:51.511Z,102351.81
2022-11-27T00:13:18.056Z,102344.88
2022-11-27T00:15:44.887Z,102356.94
2022-11-27T00:18:12.215Z,102358.13
2022-11-27T00:20:38.816Z,102356.69
2022-11-27T00:23:05.303Z,102353.41
2022-11-27T00:25:32.398Z,102352.13
2022-11-27T00:27:58.930Z,102350.66
2022-11-27T00:30:25.364Z,102346.91
2022-11-27T00:32:51.819Z,102362.47
2022-11-27T00:35:18.339Z,102361.59
2022-11-27T00:37:44.801Z,102365.44
2022-11-27T00:40:11.556Z,102365.91
2022-11-27T00:42:38.051Z,102368.53
2022-11-27T00:45:04.679Z,102375.72
2022-11-27T00:47:31.134Z,102379.31
2022-11-27T00:49:57.799Z,102379.66
2022-11-27T00:52:24.235Z,102382.81
2022-11-27T00:54:50.868Z,102397.69
2022-11-27T00:57:17.306Z,102391.31
2022-11-27T00:59:43.776Z,102382.84
2022-11-27T01:02:10.244Z,102397.56
2022-11-27T01:04:36.981Z,102395.28
2022-11-27T01:07:03.562Z,102388.72
2022-11-27T01:09:30.061Z,102399.38
2022-11-27T01:11:56.469Z,102389.97
2022-11-27T01:14:22.949Z,102389.97
2022-11-27T01:16:49.424Z,102384.84
2022-11-27T01:19:16.359Z,102368.34
2022-11-27T01:21:43.004Z,102372.59
2022-11-27T01:24:11.121Z,102369.88
2022-11-27T01:26:37.560Z,102358.63
2022-11-27T01:29:04.055Z,102363.94
2022-11-27T01:31:32.413Z,102370.00
2022-11-27T01:34:01.875Z,102376.78
2022-11-27T01:36:29.279Z,102371.25
2022-11-27T01:38:55.784Z,102370.72
2022-11-27T01:41:36.219Z,102363.59
2022-11-27T01:44:24.106Z,102358.47
2022-11-27T01:46:53.736Z,102357.53
2022-11-27T01:49:34.234Z,102356.75
2022-11-27T01:52:03.719Z,102354.03
2022-11-27T01:54:38.989Z,102349.34
2022-11-27T01:57:13.611Z,102344.38
2022-11-27T01:59:40.958Z,102348.41
2022-11-27T02:02:07.558Z,102344.41
2022-11-27T02:04:34.127Z,102348.53
2022-11-27T02:07:00.812Z,102351.50
2022-11-27T02:09:28.346Z,102335.53
2022-11-27T02:12:11.199Z,102339.78
2022-11-27T02:14:50.402Z,102344.56
2022-11-27T02:17:20.956Z,102350.44
2022-11-27T02:20:06.202Z,102344.56
2022-11-27T02:22:38.630Z,102349.69
2022-11-27T02:25:11.136Z,102341.59
2022-11-27T02:28:39.445Z,102345.41
2022-11-27T02:31:10.984Z,102338.97
2022-11-27T02:33:41.797Z,102333.63
2022-11-27T02:36:19.524Z,102338.22
2022-11-27T02:38:56.204Z,102334.66
2022-11-27T02:41:27.648Z,102335.97
2022-11-27T02:43:54.776Z,102330.56
2022-11-27T02:46:21.614Z,102335.81
2022-11-27T02:48:54.794Z,102329.56
2022-11-27T02:51:25.736Z,102335.56
2022-11-27T02:53:55.103Z,102348.38
2022-11-27T02:56:24.651Z,102334.59
2022-11-27T02:58:51.827Z,102332.31
2022-11-27T03:01:19.166Z,102336.19
2022-11-27T03:03:48.090Z,102328.81
2022-11-27T03:06:19.371Z,102325.00
2022-11-27T03:08:51.303Z,102327.31
2022-11-27T03:11:17.875Z,102334.75
2022-11-27T03:13:48.659Z,102325.31
2022-11-27T03:16:34.852Z,102327.69
2022-11-27T03:19:19.409Z,102331.06
2022-11-27T03:21:50.556Z,102324.06
2022-11-27T03:24:17.457Z,102324.56
2022-11-27T03:26:44.013Z,102331.50
2022-11-27T03:29:49.820Z,102328.66
2022-11-27T03:32:16.745Z,102332.69
2022-11-27T03:34:43.478Z,102333.72
2022-11-27T03:37:10.162Z,102341.31
2022-11-27T03:39:36.883Z,102337.09
2022-11-27T03:42:41.939Z,102336.34
2022-11-27T03:45:22.203Z,102333.81
2022-11-27T03:48:18.381Z,102329.00
2022-11-27T03:51:00.139Z,102319.25
2022-11-27T03:53:57.785Z,102312.78
2022-11-27T03:56:38.451Z,102312.66
2022-11-27T03:59:09.984Z,102307.53
2022-11-27T04:01:36.682Z,102310.41
2022-11-27T04:04:03.434Z,102303.16
2022-11-27T04:06:29.922Z,102299.00
2022-11-27T04:08:56.355Z,102309.41
2022-11-27T04:11:22.804Z,102307.91
2022-11-27T04:13:49.255Z,102299.59
2022-11-27T04:16:15.842Z,102290.19
2022-11-27T04:18:42.307Z,102277.50
2022-11-27T04:21:08.792Z,102280.66
2022-11-27T04:23:35.267Z,102274.50
2022-11-27T04:26:02.030Z,102288.06
2022-11-27T04:28:28.571Z,102293.13
2022-11-27T04:30:55.047Z,102286.53
2022-11-27T04:33:21.925Z,102300.53
2022-11-27T04:35:48.996Z,102301.00
2022-11-27T04:38:15.444Z,102303.38
2022-11-27T04:40:41.908Z,102299.69
2022-11-27T04:43:08.364Z,102297.78
2022-11-27T04:45:34.871Z,102294.44
2022-11-27T04:48:01.334Z,102282.22
2022-11-27T04:50:27.848Z,102273.75
2022-11-27T04:52:54.333Z,102266.94
2022-11-27T04:55:20.801Z,102269.91
2022-11-27T04:57:47.266Z,102256.28
2022-11-27T05:00:14.122Z,102260.66
2022-11-27T05:02:40.734Z,102264.84
2022-11-27T05:05:07.608Z,102264.56
2022-11-27T05:07:34.187Z,102263.38
2022-11-27T05:10:00.694Z,102261.31
2022-11-27T05:12:27.163Z,102243.09
2022-11-27T05:14:53.588Z,102239.63
2022-11-27T05:17:20.047Z,102242.63
2022-11-27T05:19:46.478Z,102240.47
2022-11-27T05:22:12.938Z,102223.94
2022-11-27T05:24:39.604Z,102230.25
2022-11-27T05:27:06.243Z,102214.63
2022-11-27T05:29:32.712Z,102214.41
2022-11-27T05:31:59.170Z,102211.47
2022-11-27T05:34:25.610Z,102207.16
2022-11-27T05:36:52.077Z,102205.16
2022-11-27T05:39:18.552Z,102210.66
2022-11-27T05:41:45.067Z,102214.38
2022-11-27T05:44:15.436Z,102207.66
2022-11-27T05:46:45.822Z,102207.28
2022-11-27T05:49:14.358Z,102211.38
2022-11-27T05:51:44.129Z,102210.47
2022-11-27T05:54:12.912Z,102212.84
2022-11-27T05:56:39.399Z,102216.25
2022-11-27T05:59:05.913Z,102212.53
2022-11-27T06:01:32.478Z,102208.31
2022-11-27T06:03:58.939Z,102212.84
2022-11-27T06:06:25.420Z,102221.41
2022-11-27T06:08:51.881Z,102224.84
2022-11-27T06:11:20.972Z,102223.38
2022-11-27T06:13:48.537Z,102229.22
2022-11-27T06:16:22.535Z,102223.38
2022-11-27T06:18:51.239Z,102235.47
2022-11-27T06:21:17.821Z,102229.78
2022-11-27T06:23:44.648Z,102230.19
2022-11-27T06:26:19.983Z,102228.66
2022-11-27T06:28:47.258Z,102222.75
2022-11-27T06:31:18.308Z,102222.25
2022-11-27T06:33:46.287Z,102208.81
2022-11-27T06:36:12.727Z,102208.88
2022-11-27T06:38:39.298Z,102205.53
2022-11-27T06:41:11.542Z,102200.25
2022-11-27T06:43:38.577Z,102196.84
2022-11-27T06:46:06.935Z,102199.25
2022-11-27T06:48:34.296Z,102190.47
2022-11-27T06:51:02.172Z,102183.31
2022-11-27T06:53:29.753Z,102185.59
2022-11-27T06:55:56.760Z,102190.09
2022-11-27T06:58:29.345Z,102196.19
2022-11-27T07:00:59.020Z,102195.47
2022-11-27T07:03:25.963Z,102202.66
2022-11-27T07:05:52.577Z,102199.13
2022-11-27T07:08:19.075Z,102207.84
2022-11-27T07:10:45.592Z,102210.25
2022-11-27T07:13:12.058Z,102218.31
2022-11-27T07:15:38.486Z,102223.69
2022-11-27T07:18:04.992Z,102211.41
2022-11-27T07:20:32.247Z,102209.16
2022-11-27T07:22:58.730Z,102209.84
2022-11-27T07:25:25.192Z,102206.97
2022-11-27T07:27:51.661Z,102205.34
2022-11-27T07:30:18.273Z,102205.72
2022-11-27T07:32:44.736Z,102197.88
2022-11-27T07:35:11.315Z,102196.25
2022-11-27T07:37:37.831Z,102190.13
2022-11-27T07:40:05.147Z,102189.50
2022-11-27T07:42:39.439Z,102197.47
2022-11-27T07:45:08.268Z,102206.22
2022-11-27T07:47:34.754Z,102214.34
2022-11-27T07:50:01.335Z,102217.28
2022-11-27T07:52:27.880Z,102214.22
2022-11-27T07:54:54.455Z,102203.94
2022-11-27T07:57:21.049Z,102192.22
2022-11-27T07:59:47.898Z,102181.63
2022-11-27T08:02:14.876Z,102180.88
2022-11-27T08:04:41.625Z,102173.44
2022-11-27T08:07:08.421Z,102175.94
2022-11-27T08:09:34.895Z,102171.34
2022-11-27T08:12:01.374Z,102167.69
2022-11-27T08:14:27.885Z,102171.47
2022-11-27T08:16:54.421Z,102175.13
2022-11-27T08:19:21.023Z,102173.13
2022-11-27T08:21:47.496Z,102162.13
2022-11-27T08:24:13.974Z,102147.88
2022-11-27T08:26:40.476Z,102146.38
2022-11-27T08:29:07.278Z,102145.44
2022-11-27T08:31:34.057Z,102146.53
2022-11-27T08:34:00.643Z,102163.72
2022-11-27T08:36:27.279Z,102163.44
2022-11-27T08:38:55.112Z,102151.03
2022-11-27T08:41:22.002Z,102153.19
2022-11-27T08:43:48.458Z,102146.63
2022-11-27T08:46:15.049Z,102136.94
2022-11-27T08:48:42.077Z,102121.03
2022-11-27T08:51:10.999Z,102112.47
2022-11-27T08:53:38.076Z,102111.38
2022-11-27T08:56:14.199Z,102106.00
2022-11-27T08:58:41.210Z,102116.56
2022-11-27T09:01:12.673Z,102118.50
2022-11-27T09:03:39.419Z,102113.25
2022-11-27T09:06:07.728Z,102111.69
2022-11-27T09:08:34.185Z,102112.94
2022-11-27T09:11:01.484Z,102107.59
2022-11-27T09:13:27.951Z,102103.22
2022-11-27T09:15:56.576Z,102104.66
2022-11-27T09:18:23.426Z,102101.22
2022-11-27T09:20:58.095Z,102109.03
2022-11-27T09:23:24.670Z,102110.28
2022-11-27T09:25:51.196Z,102109.72
2022-11-27T09:28:17.704Z,102116.63
2022-11-27T09:30:44.320Z,102110.72
2022-11-27T09:33:10.868Z,102109.00
2022-11-27T09:35:38.266Z,102104.50
2022-11-27T09:38:04.806Z,102098.72
2022-11-27T09:40:31.360Z,102097.75
2022-11-27T09:43:02.946Z,102087.50
2022-11-27T09:45:29.693Z,102103.63
2022-11-27T09:47:59.303Z,102097.97
2022-11-27T09:50:29.006Z,102085.78
2022-11-27T09:53:00.114Z,102076.94
2022-11-27T09:55:34.133Z,102076.50
2022-11-27T09:58:26.898Z,102075.41
2022-11-27T10:00:53.409Z,102071.69
2022-11-27T10:03:27.418Z,102059.94
2022-11-27T10:06:15.817Z,102073.66
2022-11-27T10:08:55.402Z,102066.88
2022-11-27T10:11:40.351Z,102063.38
2022-11-27T10:14:34.064Z,102057.91
2022-11-27T10:17:06.500Z,102066.28
2022-11-27T10:19:42.782Z,102077.72
2022-11-27T10:22:29.763Z,102079.25
2022-11-27T10:25:02.307Z,102070.78
2022-11-27T10:27:38.644Z,102060.34
2022-11-27T10:30:17.266Z,102041.56
2022-11-27T10:32:55.049Z,102049.69
2022-11-27T10:35:24.478Z,102046.13
2022-11-27T10:38:06.518Z,102047.91
2022-11-27T10:40:46.248Z,102048.66
2022-11-27T10:43:20.280Z,102040.66
2022-11-27T10:46:08.057Z,102043.47
2022-11-27T10:48:34.625Z,102036.50
2022-11-27T10:51:01.296Z,102034.78
2022-11-27T10:53:32.264Z,102041.09
2022-11-27T10:56:05.523Z,102034.88
2022-11-27T10:58:41.974Z,102033.19
2022-11-27T11:01:09.757Z,102029.13
2022-11-27T11:03:36.887Z,102033.69
2022-11-27T11:06:23.213Z,102031.16
2022-11-27T11:09:13.161Z,102024.94
2022-11-27T11:11:39.861Z,102023.69
2022-11-27T11:14:16.936Z,102022.97
2022-11-27T11:16:45.072Z,102011.75
2022-11-27T11:19:22.434Z,102009.72
2022-11-27T11:21:49.140Z,102010.00
2022-11-27T11:24:24.979Z,102006.78
2022-11-27T11:26:59.267Z,101997.91
2022-11-27T11:29:40.233Z,102007.53
2022-11-27T11:32:20.470Z,102006.31
2022-11-27T11:35:10.518Z,102000.66
2022-11-27T11:37:44.988Z,101985.94
2022-11-27T11:40:16.548Z,101983.88
2022-11-27T11:42:58.593Z,101983.59
2022-11-27T11:45:31.256Z,101980.88
2022-11-27T11:48:02.541Z,101977.81
2022-11-27T11:50:45.381Z,101965.00
2022-11-27T11:53:34.110Z,101978.41
2022-11-27T11:56:22.784Z,101974.44
2022-11-27T11:59:02.947Z,101977.78
2022-11-27T12:01:36.598Z,101979.00
2022-11-27T12:04:21.445Z,101966.31
2022-11-27T12:07:09.503Z,101961.88
2022-11-27T12:09:42.064Z,101957.69
2022-11-27T12:12:20.972Z,101952.06
2022-11-27T12:14:50.677Z,101951.84
2022-11-27T12:17:41.454Z,101950.59
2022-11-27T12:20:14.753Z,101939.97
2022-11-27T12:23:06.036Z,101939.00
2022-11-27T12:26:11.599Z,101918.28
2022-11-27T12:29:03.878Z,101919.94
2022-11-27T12:31:39.530Z,101918.53
2022-11-27T12:34:24.127Z,101914.31
2022-11-27T12:37:14.364Z,101908.22
2022-11-27T12:39:49.779Z,101908.47
2022-11-27T12:42:24.172Z,101901.50
2022-11-27T12:44:57.186Z,101892.50
2022-11-27T12:47:40.208Z,101881.53
2022-11-27T12:50:30.408Z,101877.84
2022-11-27T12:53:11.574Z,101875.50
2022-11-27T12:55:39.563Z,101878.00
2022-11-27T12:58:10.750Z,101883.78
2022-11-27T13:00:41.263Z,101885.75
2022-11-27T13:03:18.634Z,101890.41
2022-11-27T13:06:03.577Z,101890.50
2022-11-27T13:08:48.339Z,101887.88
2022-11-27T13:11:19.471Z,101878.72
2022-11-27T13:13:49.119Z,101880.00
2022-11-27T13:16:25.412Z,101875.13
2022-11-27T13:18:55.253Z,101870.44
2022-11-27T13:21:28.316Z,101871.63
2022-11-27T13:23:54.993Z,101870.09
2022-11-27T13:26:26.653Z,101866.31
2022-11-27T13:28:56.390Z,101871.63
2022-11-27T13:31:28.607Z,101869.84
2022-11-27T13:34:00.856Z,101863.88
2022-11-27T13:36:46.225Z,101866.88
2022-11-27T13:39:24.646Z,101859.00
2022-11-27T13:42:00.725Z,101847.47
2022-11-27T13:44:29.028Z,101847.31
2022-11-27T13:46:58.755Z,101849.84
2022-11-27T13:49:28.547Z,101843.50
2022-11-27T13:52:27.954Z,101847.53
2022-11-27T13:54:59.250Z,101839.53
2022-11-27T13:57:27.406Z,101837.00
2022-11-27T14:00:05.201Z,101834.78
2022-11-27T14:02:48.536Z,101829.13
2022-11-27T14:05:18.146Z,101822.09
2022-11-27T14:07:49.887Z,101825.88
2022-11-27T14:10:18.144Z,101836.47
2022-11-27T14:12:53.529Z,101829.06
2022-11-27T14:15:25.632Z,101837.13
2022-11-27T14:17:55.227Z,101835.50
2022-11-27T14:20:28.217Z,101831.22
2022-11-27T14:23:13.490Z,101824.03
2022-11-27T14:25:40.916Z,101822.50
2022-11-27T14:28:21.384Z,101825.47
2022-11-27T14:30:50.440Z,101824.19
2022-11-27T14:33:28.249Z,101827.72
2022-11-27T14:35:57.034Z,101819.91
2022-11-27T14:38:24.856Z,101824.81
2022-11-27T14:40:55.818Z,101817.88
2022-11-27T14:43:26.006Z,101826.22
2022-11-27T14:45:55.474Z,101822.94
2022-11-27T14:48:24.302Z,101814.56
2022-11-27T14:50:51.471Z,101807.78
2022-11-27T14:53:19.980Z,101807.84
2022-11-27T14:55:49.302Z,101810.50
2022-11-27T14:58:22.693Z,101809.50
2022-11-27T15:00:59.423Z,101803.72
2022-11-27T15:03:26.377Z,101803.56
2022-11-27T15:05:54.914Z,101796.53
2022-11-27T15:08:21.567Z,101795.56
2022-11-27T15:10:48.114Z,101792.22
2022-11-27T15:13:22.852Z,101784.06
2022-11-27T15:16:02.580Z,101786.44
2022-11-27T15:18:29.826Z,101788.00
2022-11-27T15:20:57.517Z,101780.75
2022-11-27T15:23:27.920Z,101784.56
2022-11-27T15:26:00.728Z,101778.69
2022-11-27T15:28:34.033Z,101779.16
2022-11-27T15:31:01.113Z,101773.25
2022-11-27T15:33:32.936Z,101778.09
2022-11-27T15:36:41.986Z,101776.72
2022-11-27T15:39:21.639Z,101761.78
2022-11-27T15:41:54.187Z,101762.78
2022-11-27T15:44:20.975Z,101764.94
2022-11-27T15:46:47.586Z,101762.34
2022-11-27T15:49:15.224Z,101752.38
2022-11-27T15:51:42.319Z,101758.75
2022-11-27T15:54:08.905Z,101754.09
2022-11-27T15:56:35.419Z,101747.09
2022-11-27T15:59:01.878Z,101742.94
2022-11-27T16:01:28.368Z,101746.69
2022-11-27T16:03:55.795Z,101739.13
2022-11-27T16:06:24.644Z,101728.53
2022-11-27T16:08:58.911Z,101741.72
2022-11-27T16:11:26.651Z,101739.47
2022-11-27T16:13:53.105Z,101743.16
2022-11-27T16:16:20.138Z,101739.56
2022-11-27T16:18:46.756Z,101743.47
2022-11-27T16:21:15.403Z,101737.56
2022-11-27T16:23:42.141Z,101738.47
2022-11-27T16:26:11.592Z,101736.06
2022-11-27T16:28:38.055Z,101733.78
2022-11-27T16:31:08.637Z,101732.59
2022-11-27T16:33:35.124Z,101732.66
2022-11-27T16:36:09.988Z,101730.13
2022-11-27T16:38:36.694Z,101725.22
2022-11-27T16:41:05.736Z,101723.53
2022-11-27T16:43:35.284Z,101719.34
2022-11-27T16:46:07.355Z,101713.91
2022-11-27T16:48:35.531Z,101709.31
2022-11-27T16:51:04.718Z,101711.16
2022-11-27T16:53:31.327Z,101710.75
2022-11-27T16:55:57.791Z,101711.81
2022-11-27T16:58:24.615Z,101700.41
2022-11-27T17:00:51.208Z,101699.94
2022-11-27T17:03:17.855Z,101700.56
2022-11-27T17:05:48.757Z,101697.69
2022-11-27T17:08:17.835Z,101698.84
2022-11-27T17:10:45.950Z,101688.59
2022-11-27T17:13:12.543Z,101688.13
2022-11-27T17:15:40.753Z,101685.94
2022-11-27T17:18:07.417Z,101673.19
2022-11-27T17:20:33.857Z,101673.97
2022-11-27T17:23:00.503Z,101669.00
2022-11-27T17:25:27.036Z,101673.38
2022-11-27T17:27:53.511Z,101654.72
2022-11-27T17:30:19.969Z,101656.84
2022-11-27T17:32:46.393Z,101654.88
2022-11-27T17:35:13.054Z,101647.94
2022-11-27T17:37:39.503Z,101653.44
2022-11-27T17:40:06.756Z,101649.16
2022-11-27T17:42:33.207Z,101647.56
2022-11-27T17:44:59.663Z,101637.16
2022-11-27T17:47:26.316Z,101638.97
2022-11-27T17:49:52.763Z,101631.47
2022-11-27T17:52:19.262Z,101638.97
2022-11-27T17:54:45.705Z,101637.25
2022-11-27T17:57:12.177Z,101636.69
2022-11-27T17:59:38.841Z,101629.34
2022-11-27T18:02:05.534Z,101621.91
2022-11-27T18:04:32.386Z,101625.50
2022-11-27T18:06:58.962Z,101629.41
2022-11-27T18:09:25.459Z,101619.59
2022-11-27T18:11:52.277Z,101618.09
2022-11-27T18:14:18.761Z,101612.63
2022-11-27T18:16:45.677Z,101605.59
2022-11-27T18:19:12.309Z,101605.06
2022-11-27T18:21:39.407Z,101602.56
2022-11-27T18:24:23.553Z,101605.97
2022-11-27T18:29:39.222Z,101608.44
2022-11-27T18:32:06.326Z,101604.44
2022-11-27T18:34:32.961Z,101603.66
2022-11-27T18:37:03.635Z,101596.72
2022-11-27T18:39:31.708Z,101586.97
2022-11-27T18:41:58.855Z,101575.75
2022-11-27T18:44:25.586Z,101581.28
2022-11-27T18:46:52.184Z,101576.97
2022-11-27T18:49:19.048Z,101578.34
2022-11-27T18:51:45.604Z,101577.41
2022-11-27T18:54:12.208Z,101574.09
2022-11-27T18:56:38.861Z,101569.84
2022-11-27T18:59:07.043Z,101569.44
2022-11-27T19:01:41.600Z,101563.56
2022-11-27T19:04:09.627Z,101570.34
2022-11-27T19:06:37.573Z,101567.19
2022-11-27T19:09:04.902Z,101553.22
2022-11-27T19:11:32.837Z,101555.34
2022-11-27T19:13:59.694Z,101547.75
2022-11-27T19:16:38.616Z,101555.22
2022-11-27T19:19:06.384Z,101550.91
2022-11-27T19:21:34.050Z,101545.72
2022-11-27T19:24:02.609Z,101542.81
2022-11-27T19:26:32.031Z,101551.41
2022-11-27T19:29:00.910Z,101544.53
2022-11-27T19:31:27.749Z,101552.19
2022-11-27T19:33:55.755Z,101543.09
2022-11-27T19:36:23.223Z,101546.88
2022-11-27T19:38:54.741Z,101556.06
2022-11-27T19:41:21.589Z,101566.19
2022-11-27T19:43:48.277Z,101567.63
2022-11-27T19:46:15.084Z,101568.56
2022-11-27T19:48:42.045Z,101554.75
2022-11-27T19:51:10.138Z,101546.47
2022-11-27T19:53:37.787Z,101546.56
2022-11-27T19:56:05.594Z,101542.66
2022-11-27T19:58:32.498Z,101537.41
2022-11-27T20:01:10.660Z,101543.66
2022-11-27T20:03:37.592Z,101535.66
2022-11-27T20:06:06.695Z,101521.50
2022-11-27T20:08:33.524Z,101518.78
2022-11-27T20:11:00.957Z,101515.94
2022-11-27T20:13:27.869Z,101512.69
2022-11-27T20:15:55.538Z,101505.63
2022-11-27T20:18:22.501Z,101495.72
2022-11-27T20:20:49.208Z,101500.63
2022-11-27T20:23:15.839Z,101502.09
2022-11-27T20:25:42.758Z,101513.03
2022-11-27T20:28:10.080Z,101505.22
2022-11-27T20:30:38.884Z,101497.75
2022-11-27T20:33:07.675Z,101484.53
2022-11-27T20:35:34.685Z,101488.72
2022-11-27T20:38:01.397Z,101476.09
2022-11-27T20:40:28.520Z,101485.81
2022-11-27T20:42:55.333Z,101486.28
2022-11-27T20:45:21.979Z,101488.41
2022-11-27T20:47:48.827Z,101478.22
2022-11-27T20:50:15.466Z,101476.22
2022-11-27T20:52:42.241Z,101469.22
2022-11-27T20:55:09.223Z,101472.91
2022-11-27T20:57:35.984Z,101472.25
2022-11-27T21:00:02.681Z,101468.22
2022-11-27T21:02:29.514Z,101469.06
2022-11-27T21:04:56.284Z,101460.44
2022-11-27T21:07:23.146Z,101454.59
2022-11-27T21:09:49.906Z,101465.53
2022-11-27T21:12:16.938Z,101487.34
2022-11-27T21:14:44.485Z,101479.22
2022-11-27T21:17:11.130Z,101479.41
2022-11-27T21:19:37.875Z,101480.06
2022-11-27T21:22:04.574Z,101486.88
2022-11-27T21:24:31.383Z,101482.53
2022-11-27T21:26:58.043Z,101473.78
2022-11-27T21:29:27.887Z,101476.13
2022-11-27T21:31:55.516Z,101477.84
2022-11-27T21:34:22.883Z,101475.19
2022-11-27T21:36:49.618Z,101470.00
2022-11-27T21:39:20.521Z,101453.00
2022-11-27T21:41:48.975Z,101456.69
2022-11-27T21:44:17.766Z,101465.69
2022-11-27T21:46:48.469Z,101450.88
2022-11-27T21:49:16.492Z,101446.22
2022-11-27T21:51:43.186Z,101454.19
2022-11-27T21:54:12.774Z,101455.06
2022-11-27T21:56:40.934Z,101453.53
2022-11-27T21:59:09.564Z,101458.03
2022-11-27T22:01:36.911Z,101439.69
2022-11-27T22:04:03.675Z,101442.50
2022-11-27T22:06:35.461Z,101432.94
2022-11-27T22:09:02.299Z,101428.03
2022-11-27T22:11:32.730Z,101433.66
2022-11-27T22:14:02.371Z,101426.19
2022-11-27T22:16:31.472Z,101435.16
2022-11-27T22:18:59.180Z,101431.56
2022-11-27T22:21:27.497Z,101431.44
2022-11-27T22:23:54.418Z,101430.00
2022-11-27T22:26:22.620Z,101419.84
2022-11-27T22:28:50.238Z,101407.91
2022-11-27T22:31:22.558Z,101410.03
2022-11-27T22:33:49.588Z,101405.13
2022-11-27T22:36:26.960Z,101417.44
2022-11-27T22:38:54.891Z,101406.97
2022-11-27T22:41:23.792Z,101395.25
2022-11-27T22:43:50.862Z,101392.09
2022-11-27T22:46:27.212Z,101387.06
2022-11-27T22:49:00.552Z,101390.50
2022-11-27T22:51:29.310Z,101388.84
2022-11-27T22:53:56.493Z,101400.63
2022-11-27T22:56:23.489Z,101391.44
2022-11-27T22:58:58.225Z,101386.13
2022-11-27T23:01:32.954Z,101381.16
2022-11-27T23:04:01.279Z,101380.38
2022-11-27T23:06:28.404Z,101380.91
2022-11-27T23:08:55.297Z,101374.06
2022-11-27T23:11:27.275Z,101365.41
2022-11-27T23:13:56.303Z,101359.31
2022-11-27T23:16:23.122Z,101354.03
2022-11-27T23:18:50.986Z,101343.06
2022-11-27T23:21:19.906Z,101353.66
2022-11-27T23:23:47.185Z,101339.25
2022-11-27T23:26:18.309Z,101326.25
2022-11-27T23:28:45.544Z,101343.66
2022-11-27T23:31:33.176Z,101333.69
2022-11-27T23:34:02.086Z,101327.31
2022-11-27T23:36:30.031Z,101325.19
2022-11-27T23:38:56.631Z,101315.03
2022-11-27T23:41:24.791Z,101315.38
2022-11-27T23:43:52.504Z,101310.72
2022-11-27T23:46:20.481Z,101309.19
2022-11-27T23:48:47.380Z,101304.78
2022-11-27T23:51:18.876Z,101312.22
2022-11-27T23:53:46.533Z,101296.22
2022-11-27T23:56:15.617Z,101299.22
2022-11-27T23:58:46.734Z,101293.31
